sensor_id;sensor_type;location;lat;lon;timestamp;temperature;humidity
2523;DHT22;1272;53.332;9.860;2024-01-15T00:02:16;1.70;99.90
2523;DHT22;1272;53.332;9.860;2024-01-15T00:04:41;1.60;99.90
2523;DHT22;1272;53.332;9.860;2024-01-15T00:07:08;1.60;99.90
2523;DHT22;1272;53.332;9.860;2024-01-15T00:09:34;1.50;99.90
2523;DHT22;1272;53.332;9.860;2024-01-15T00:12:01;1.50;99.90
2523;DHT22;1272;53.332;9.860;2024-01-15T00:14:27;1.50;99.90
2523;DHT22;1272;53.332;9.860;2024-01-15T00:16:53;1.50;99.90
2523;DHT22;1272;53.332;9.860;2024-01-15T00:19:21;1.60;99.90
2523;DHT22;1272;53.332;9.860;2024-01-15T00:21:47;1.50;99.90
2523;DHT22;1272;53.332;9.860;2024-01-15T00:24:13;1.50;99.90
2523;DHT22;1272;53.332;9.860;2024-01-15T00:26:39;1.60;99.90
2523;DHT22;1272;53.332;9.860;2024-01-15T00:29:07;1.60;99.90
2523;DHT22;1272;53.332;9.860;2024-01-15T00:31:33;1.60;99.90
2523;DHT22;1272;53.332;9.860;2024-01-15T00:33:58;1.50;99.90
2523;DHT22;1272;53.332;9.860;2024-01-15T00:36:24;1.50;99.90
2523;DHT22;1272;53.332;9.860;2024-01-15T00:38:50;1.50;99.90
2523;DHT22;1272;53.332;9.860;2024-01-15T00:41:17;1.50;99.90
2523;DHT22;1272;53.332;9.860;2024-01-15T00:43:44;1.50;99.90
2523;DHT22;1272;53.332;9.860;2024-01-15T00:46:10;1.50;99.90
2523;DHT22;1272;53.332;9.860;2024-01-15T00:48:36;1.50;99.90
2523;DHT22;1272;53.332;9.860;2024-01-15T00:51:02;1.50;99.90
2523;DHT22;1272;53.332;9.860;2024-01-15T00:53:28;1.50;99.90
2523;DHT22;1272;53.332;9.860;2024-01-15T00:55:53;1.50;99.90
2523;DHT22;1272;53.332;9.860;2024-01-15T00:58:19;1.60;99.90
2523;DHT22;1272;53.332;9.860;2024-01-15T01:00:45;1.70;99.90
2523;DHT22;1272;53.332;9.860;2024-01-15T01:03:10;1.60;99.90
2523;DHT22;1272;53.332;9.860;2024-01-15T01:05:36;1.60;99.90
2523;DHT22;1272;53.332;9.860;2024-01-15T01:08:03;1.60;91.50
2523;DHT22;1272;53.332;9.860;2024-01-15T01:10:28;1.70;91.90
2523;DHT22;1272;53.332;9.860;2024-01-15T01:12:54;1.70;2.70
2523;DHT22;1272;53.332;9.860;2024-01-15T01:15:20;1.60;1.00
2523;DHT22;1272;53.332;9.860;2024-01-15T01:17:46;1.60;1.50
2523;DHT22;1272;53.332;9.860;2024-01-15T01:20:12;1.60;24.10
2523;DHT22;1272;53.332;9.860;2024-01-15T01:22:40;1.60;76.20
2523;DHT22;1272;53.332;9.860;2024-01-15T01:25:07;1.60;65.90
2523;DHT22;1272;53.332;9.860;2024-01-15T01:27:33;1.60;99.90
2523;DHT22;1272;53.332;9.860;2024-01-15T01:29:58;1.50;99.90
2523;DHT22;1272;53.332;9.860;2024-01-15T01:32:24;1.50;99.90
2523;DHT22;1272;53.332;9.860;2024-01-15T01:34:50;1.50;99.90
2523;DHT22;1272;53.332;9.860;2024-01-15T01:37:15;1.40;99.90
2523;DHT22;1272;53.332;9.860;2024-01-15T01:39:42;1.40;99.90
2523;DHT22;1272;53.332;9.860;2024-01-15T01:42:08;1.50;99.90
2523;DHT22;1272;53.332;9.860;2024-01-15T01:44:33;1.50;99.90
2523;DHT22;1272;53.332;9.860;2024-01-15T01:47:00;1.50;99.90
2523;DHT22;1272;53.332;9.860;2024-01-15T01:49:27;1.50;99.90
2523;DHT22;1272;53.332;9.860;2024-01-15T01:51:57;1.50;99.90
2523;DHT22;1272;53.332;9.860;2024-01-15T01:54:23;1.50;99.90
2523;DHT22;1272;53.332;9.860;2024-01-15T01:56:50;1.50;99.90
2523;DHT22;1272;53.332;9.860;2024-01-15T01:59:17;1.50;99.90
2523;DHT22;1272;53.332;9.860;2024-01-15T02:01:44;1.50;99.90
2523;DHT22;1272;53.332;9.860;2024-01-15T02:04:11;1.40;99.90
2523;DHT22;1272;53.332;9.860;2024-01-15T02:06:37;1.50;99.90
2523;DHT22;1272;53.332;9.860;2024-01-15T02:09:03;1.50;99.90
2523;DHT22;1272;53.332;9.860;2024-01-15T02:11:31;1.40;99.90
2523;DHT22;1272;53.332;9.860;2024-01-15T02:13:56;1.40;99.90
2523;DHT22;1272;53.332;9.860;2024-01-15T02:16:22;1.50;99.90
2523;DHT22;1272;53.332;9.860;2024-01-15T02:18:48;1.40;99.90
2523;DHT22;1272;53.332;9.860;2024-01-15T02:21:14;1.40;99.90
2523;DHT22;1272;53.332;9.860;2024-01-15T02:23:39;1.40;99.90
2523;DHT22;1272;53.332;9.860;2024-01-15T02:26:05;1.40;99.90
2523;DHT22;1272;53.332;9.860;2024-01-15T02:28:32;1.40;99.90
2523;DHT22;1272;53.332;9.860;2024-01-15T02:30:58;1.50;99.90
2523;DHT22;1272;53.332;9.860;2024-01-15T02:33:24;1.50;99.90
2523;DHT22;1272;53.332;9.860;2024-01-15T02:35:50;1.40;99.90
2523;DHT22;1272;53.332;9.860;2024-01-15T02:38:16;1.50;99.90
2523;DHT22;1272;53.332;9.860;2024-01-15T02:40:42;1.50;99.90
2523;DHT22;1272;53.332;9.860;2024-01-15T02:43:08;1.50;99.90
2523;DHT22;1272;53.332;9.860;2024-01-15T02:45:36;1.50;99.90
2523;DHT22;1272;53.332;9.860;2024-01-15T02:48:02;1.50;99.90
2523;DHT22;1272;53.332;9.860;2024-01-15T02:50:27;1.40;99.90
2523;DHT22;1272;53.332;9.860;2024-01-15T02:52:53;1.40;99.90
2523;DHT22;1272;53.332;9.860;2024-01-15T02:55:19;1.40;99.90
2523;DHT22;1272;53.332;9.860;2024-01-15T02:57:45;1.40;99.90
2523;DHT22;1272;53.332;9.860;2024-01-15T03:00:11;1.40;99.90
2523;DHT22;1272;53.332;9.860;2024-01-15T03:02:38;1.40;99.90
2523;DHT22;1272;53.332;9.860;2024-01-15T03:05:09;1.40;99.90
2523;DHT22;1272;53.332;9.860;2024-01-15T03:07:35;1.40;99.90
2523;DHT22;1272;53.332;9.860;2024-01-15T03:10:01;1.50;99.90
2523;DHT22;1272;53.332;9.860;2024-01-15T03:12:27;1.50;99.90
2523;DHT22;1272;53.332;9.860;2024-01-15T03:14:52;1.60;99.90
2523;DHT22;1272;53.332;9.860;2024-01-15T03:17:18;1.60;99.90
2523;DHT22;1272;53.332;9.860;2024-01-15T03:19:44;1.60;99.90
2523;DHT22;1272;53.332;9.860;2024-01-15T03:22:10;1.60;99.90
2523;DHT22;1272;53.332;9.860;2024-01-15T03:24:35;1.70;99.90
2523;DHT22;1272;53.332;9.860;2024-01-15T03:27:02;1.70;99.90
2523;DHT22;1272;53.332;9.860;2024-01-15T03:29:27;1.70;99.90
2523;DHT22;1272;53.332;9.860;2024-01-15T03:31:53;1.70;99.90
2523;DHT22;1272;53.332;9.860;2024-01-15T03:34:19;1.70;99.90
2523;DHT22;1272;53.332;9.860;2024-01-15T03:36:45;1.70;99.90
2523;DHT22;1272;53.332;9.860;2024-01-15T03:39:10;1.70;99.90
2523;DHT22;1272;53.332;9.860;2024-01-15T03:41:36;1.70;99.90
2523;DHT22;1272;53.332;9.860;2024-01-15T03:44:02;1.80;99.90
2523;DHT22;1272;53.332;9.860;2024-01-15T03:46:28;1.70;99.90
2523;DHT22;1272;53.332;9.860;2024-01-15T03:48:54;1.70;99.90
2523;DHT22;1272;53.332;9.860;2024-01-15T03:51:20;1.80;99.90
2523;DHT22;1272;53.332;9.860;2024-01-15T03:53:46;1.70;99.90
2523;DHT22;1272;53.332;9.860;2024-01-15T03:56:12;1.80;99.90
2523;DHT22;1272;53.332;9.860;2024-01-15T03:58:37;1.80;99.90
2523;DHT22;1272;53.332;9.860;2024-01-15T04:01:03;1.70;99.90
2523;DHT22;1272;53.332;9.860;2024-01-15T04:03:29;1.80;99.90
2523;DHT22;1272;53.332;9.860;2024-01-15T04:05:54;1.80;99.90
2523;DHT22;1272;53.332;9.860;2024-01-15T04:08:20;1.70;99.90
2523;DHT22;1272;53.332;9.860;2024-01-15T04:10:46;1.70;99.90
2523;DHT22;1272;53.332;9.860;2024-01-15T04:13:11;1.70;99.90
2523;DHT22;1272;53.332;9.860;2024-01-15T04:15:37;1.60;99.90
2523;DHT22;1272;53.332;9.860;2024-01-15T04:18:03;1.70;99.90
2523;DHT22;1272;53.332;9.860;2024-01-15T04:20:29;1.70;99.90
2523;DHT22;1272;53.332;9.860;2024-01-15T04:22:55;1.70;99.90
2523;DHT22;1272;53.332;9.860;2024-01-15T04:25:20;1.70;99.90
2523;DHT22;1272;53.332;9.860;2024-01-15T04:27:46;1.70;99.90
2523;DHT22;1272;53.332;9.860;2024-01-15T04:30:12;1.70;99.90
2523;DHT22;1272;53.332;9.860;2024-01-15T04:32:38;1.70;99.90
2523;DHT22;1272;53.332;9.860;2024-01-15T04:35:04;1.80;99.90
2523;DHT22;1272;53.332;9.860;2024-01-15T04:37:29;1.80;99.90
2523;DHT22;1272;53.332;9.860;2024-01-15T04:39:55;1.80;99.90
2523;DHT22;1272;53.332;9.860;2024-01-15T04:42:22;1.70;99.90
2523;DHT22;1272;53.332;9.860;2024-01-15T04:44:48;1.70;99.90
2523;DHT22;1272;53.332;9.860;2024-01-15T04:47:14;1.70;99.90
2523;DHT22;1272;53.332;9.860;2024-01-15T04:49:40;1.80;99.90
2523;DHT22;1272;53.332;9.860;2024-01-15T04:52:05;1.80;99.90
2523;DHT22;1272;53.332;9.860;2024-01-15T04:54:31;1.80;99.90
2523;DHT22;1272;53.332;9.860;2024-01-15T04:56:57;1.80;99.90
2523;DHT22;1272;53.332;9.860;2024-01-15T04:59:23;1.70;99.90
2523;DHT22;1272;53.332;9.860;2024-01-15T05:01:49;1.70;99.90
2523;DHT22;1272;53.332;9.860;2024-01-15T05:04:15;1.70;99.90
2523;DHT22;1272;53.332;9.860;2024-01-15T05:06:40;1.70;99.90
2523;DHT22;1272;53.332;9.860;2024-01-15T05:09:06;1.60;99.90
2523;DHT22;1272;53.332;9.860;2024-01-15T05:11:32;1.70;99.90
2523;DHT22;1272;53.332;9.860;2024-01-15T05:13:58;1.70;99.90
2523;DHT22;1272;53.332;9.860;2024-01-15T05:16:24;1.70;99.90
2523;DHT22;1272;53.332;9.860;2024-01-15T05:18:49;1.60;99.90
2523;DHT22;1272;53.332;9.860;2024-01-15T05:21:15;1.50;99.90
2523;DHT22;1272;53.332;9.860;2024-01-15T05:23:41;1.50;99.90
2523;DHT22;1272;53.332;9.860;2024-01-15T05:26:07;1.60;99.90
2523;DHT22;1272;53.332;9.860;2024-01-15T05:28:34;1.60;99.90
2523;DHT22;1272;53.332;9.860;2024-01-15T05:31:00;1.60;99.90
2523;DHT22;1272;53.332;9.860;2024-01-15T05:33:25;1.60;99.90
2523;DHT22;1272;53.332;9.860;2024-01-15T05:35:51;1.60;99.90
2523;DHT22;1272;53.332;9.860;2024-01-15T05:38:17;1.60;99.90
2523;DHT22;1272;53.332;9.860;2024-01-15T05:40:43;1.50;99.90
2523;DHT22;1272;53.332;9.860;2024-01-15T05:43:08;1.50;99.90
2523;DHT22;1272;53.332;9.860;2024-01-15T05:45:34;1.50;99.90
2523;DHT22;1272;53.332;9.860;2024-01-15T05:48:01;1.60;99.90
2523;DHT22;1272;53.332;9.860;2024-01-15T05:50:26;1.70;99.90
2523;DHT22;1272;53.332;9.860;2024-01-15T05:52:52;1.70;99.90
2523;DHT22;1272;53.332;9.860;2024-01-15T05:55:18;1.80;99.90
2523;DHT22;1272;53.332;9.860;2024-01-15T05:57:44;1.70;99.90
2523;DHT22;1272;53.332;9.860;2024-01-15T06:00:11;1.70;99.90
2523;DHT22;1272;53.332;9.860;2024-01-15T06:02:39;1.70;99.90
2523;DHT22;1272;53.332;9.860;2024-01-15T06:05:06;1.70;99.90
2523;DHT22;1272;53.332;9.860;2024-01-15T06:07:33;1.60;99.90
2523;DHT22;1272;53.332;9.860;2024-01-15T06:09:59;1.60;99.90
2523;DHT22;1272;53.332;9.860;2024-01-15T06:12:24;1.50;99.90
2523;DHT22;1272;53.332;9.860;2024-01-15T06:14:50;1.60;99.90
2523;DHT22;1272;53.332;9.860;2024-01-15T06:17:16;1.60;99.90
2523;DHT22;1272;53.332;9.860;2024-01-15T06:19:41;1.60;99.90
2523;DHT22;1272;53.332;9.860;2024-01-15T06:22:07;1.60;99.90
2523;DHT22;1272;53.332;9.860;2024-01-15T06:24:33;1.60;99.90
2523;DHT22;1272;53.332;9.860;2024-01-15T06:26:59;1.60;99.90
2523;DHT22;1272;53.332;9.860;2024-01-15T06:29:26;1.60;99.90
2523;DHT22;1272;53.332;9.860;2024-01-15T06:31:52;1.60;99.90
2523;DHT22;1272;53.332;9.860;2024-01-15T06:34:18;1.60;99.90
2523;DHT22;1272;53.332;9.860;2024-01-15T06:36:44;1.50;99.90
2523;DHT22;1272;53.332;9.860;2024-01-15T06:39:10;1.50;99.90
2523;DHT22;1272;53.332;9.860;2024-01-15T06:41:36;1.50;99.90
2523;DHT22;1272;53.332;9.860;2024-01-15T06:44:11;1.50;99.90
2523;DHT22;1272;53.332;9.860;2024-01-15T06:46:41;1.60;99.90
2523;DHT22;1272;53.332;9.860;2024-01-15T06:49:07;1.60;99.90
2523;DHT22;1272;53.332;9.860;2024-01-15T06:51:32;1.60;99.90
2523;DHT22;1272;53.332;9.860;2024-01-15T06:53:58;1.50;99.90
2523;DHT22;1272;53.332;9.860;2024-01-15T06:56:24;1.50;99.90
2523;DHT22;1272;53.332;9.860;2024-01-15T06:58:49;1.50;99.90
2523;DHT22;1272;53.332;9.860;2024-01-15T07:01:15;1.60;99.90
2523;DHT22;1272;53.332;9.860;2024-01-15T07:03:41;1.60;99.90
2523;DHT22;1272;53.332;9.860;2024-01-15T07:06:06;1.50;99.90
2523;DHT22;1272;53.332;9.860;2024-01-15T07:08:32;1.60;99.90
2523;DHT22;1272;53.332;9.860;2024-01-15T07:10:59;1.60;99.90
2523;DHT22;1272;53.332;9.860;2024-01-15T07:13:25;1.60;99.90
2523;DHT22;1272;53.332;9.860;2024-01-15T07:15:50;1.60;99.90
2523;DHT22;1272;53.332;9.860;2024-01-15T07:18:16;1.60;99.90
2523;DHT22;1272;53.332;9.860;2024-01-15T07:20:42;1.60;99.90
2523;DHT22;1272;53.332;9.860;2024-01-15T07:23:07;1.50;99.90
2523;DHT22;1272;53.332;9.860;2024-01-15T07:25:33;1.40;99.90
2523;DHT22;1272;53.332;9.860;2024-01-15T07:27:59;1.50;99.90
2523;DHT22;1272;53.332;9.860;2024-01-15T07:30:24;1.40;99.90
2523;DHT22;1272;53.332;9.860;2024-01-15T07:32:50;1.50;99.90
2523;DHT22;1272;53.332;9.860;2024-01-15T07:35:18;1.50;99.90
2523;DHT22;1272;53.332;9.860;2024-01-15T07:37:44;1.60;99.90
2523;DHT22;1272;53.332;9.860;2024-01-15T07:40:10;1.60;99.90
2523;DHT22;1272;53.332;9.860;2024-01-15T07:42:36;1.60;99.90
2523;DHT22;1272;53.332;9.860;2024-01-15T07:45:02;1.60;99.90
2523;DHT22;1272;53.332;9.860;2024-01-15T07:47:27;1.50;99.90
2523;DHT22;1272;53.332;9.860;2024-01-15T07:49:53;1.50;99.90
2523;DHT22;1272;53.332;9.860;2024-01-15T07:52:20;1.60;99.90
2523;DHT22;1272;53.332;9.860;2024-01-15T07:54:45;1.60;99.90
2523;DHT22;1272;53.332;9.860;2024-01-15T07:57:11;1.50;99.90
2523;DHT22;1272;53.332;9.860;2024-01-15T07:59:37;1.50;99.90
2523;DHT22;1272;53.332;9.860;2024-01-15T08:02:03;1.50;99.90
2523;DHT22;1272;53.332;9.860;2024-01-15T08:04:28;1.40;99.90
2523;DHT22;1272;53.332;9.860;2024-01-15T08:06:54;1.40;99.90
2523;DHT22;1272;53.332;9.860;2024-01-15T08:09:20;1.40;99.90
2523;DHT22;1272;53.332;9.860;2024-01-15T08:11:46;1.40;99.90
2523;DHT22;1272;53.332;9.860;2024-01-15T08:14:12;1.40;99.90
2523;DHT22;1272;53.332;9.860;2024-01-15T08:16:38;1.30;99.90
2523;DHT22;1272;53.332;9.860;2024-01-15T08:19:04;1.30;99.90
2523;DHT22;1272;53.332;9.860;2024-01-15T08:21:30;1.30;99.90
2523;DHT22;1272;53.332;9.860;2024-01-15T08:23:58;1.30;99.90
2523;DHT22;1272;53.332;9.860;2024-01-15T08:26:24;1.40;99.90
2523;DHT22;1272;53.332;9.860;2024-01-15T08:28:50;1.30;99.90
2523;DHT22;1272;53.332;9.860;2024-01-15T08:31:15;1.40;99.90
2523;DHT22;1272;53.332;9.860;2024-01-15T08:33:41;1.40;99.90
2523;DHT22;1272;53.332;9.860;2024-01-15T08:36:07;1.40;99.90
2523;DHT22;1272;53.332;9.860;2024-01-15T08:38:33;1.40;99.90
2523;DHT22;1272;53.332;9.860;2024-01-15T08:40:59;1.30;99.90
2523;DHT22;1272;53.332;9.860;2024-01-15T08:43:28;1.30;99.90
2523;DHT22;1272;53.332;9.860;2024-01-15T08:45:54;1.40;99.90
2523;DHT22;1272;53.332;9.860;2024-01-15T08:48:19;1.40;99.90
2523;DHT22;1272;53.332;9.860;2024-01-15T08:50:45;1.40;99.90
2523;DHT22;1272;53.332;9.860;2024-01-15T08:53:12;1.30;99.90
2523;DHT22;1272;53.332;9.860;2024-01-15T08:55:38;1.40;99.90
2523;DHT22;1272;53.332;9.860;2024-01-15T08:58:03;1.30;99.90
2523;DHT22;1272;53.332;9.860;2024-01-15T09:00:29;1.30;99.90
2523;DHT22;1272;53.332;9.860;2024-01-15T09:02:56;1.30;99.90
2523;DHT22;1272;53.332;9.860;2024-01-15T09:05:22;1.20;99.90
2523;DHT22;1272;53.332;9.860;2024-01-15T09:07:48;1.20;99.90
2523;DHT22;1272;53.332;9.860;2024-01-15T09:10:14;1.20;99.90
2523;DHT22;1272;53.332;9.860;2024-01-15T09:12:40;1.30;99.90
2523;DHT22;1272;53.332;9.860;2024-01-15T09:15:06;1.30;99.90
2523;DHT22;1272;53.332;9.860;2024-01-15T09:17:32;1.30;99.90
2523;DHT22;1272;53.332;9.860;2024-01-15T09:19:58;1.30;99.90
2523;DHT22;1272;53.332;9.860;2024-01-15T09:22:23;1.30;99.90
2523;DHT22;1272;53.332;9.860;2024-01-15T09:24:49;1.40;99.90
2523;DHT22;1272;53.332;9.860;2024-01-15T09:27:15;1.40;99.90
2523;DHT22;1272;53.332;9.860;2024-01-15T09:29:41;1.50;99.90
2523;DHT22;1272;53.332;9.860;2024-01-15T09:32:08;1.50;99.90
2523;DHT22;1272;53.332;9.860;2024-01-15T09:34:34;1.50;99.90
2523;DHT22;1272;53.332;9.860;2024-01-15T09:37:00;1.50;99.90
2523;DHT22;1272;53.332;9.860;2024-01-15T09:39:26;1.60;99.90
2523;DHT22;1272;53.332;9.860;2024-01-15T09:41:53;1.50;99.90
2523;DHT22;1272;53.332;9.860;2024-01-15T09:44:22;1.60;99.90
2523;DHT22;1272;53.332;9.860;2024-01-15T09:46:48;1.60;99.90
2523;DHT22;1272;53.332;9.860;2024-01-15T09:49:17;1.60;99.90
2523;DHT22;1272;53.332;9.860;2024-01-15T09:51:43;1.60;99.90
2523;DHT22;1272;53.332;9.860;2024-01-15T09:54:09;1.70;99.90
2523;DHT22;1272;53.332;9.860;2024-01-15T09:56:35;1.70;99.90
2523;DHT22;1272;53.332;9.860;2024-01-15T09:59:01;1.70;99.90
2523;DHT22;1272;53.332;9.860;2024-01-15T10:01:31;1.60;99.90
2523;DHT22;1272;53.332;9.860;2024-01-15T10:03:58;1.60;99.90
2523;DHT22;1272;53.332;9.860;2024-01-15T10:06:27;1.60;99.90
2523;DHT22;1272;53.332;9.860;2024-01-15T10:08:57;1.50;99.90
2523;DHT22;1272;53.332;9.860;2024-01-15T10:11:26;1.50;99.90
2523;DHT22;1272;53.332;9.860;2024-01-15T10:13:52;1.50;99.90
2523;DHT22;1272;53.332;9.860;2024-01-15T10:16:21;1.40;99.90
2523;DHT22;1272;53.332;9.860;2024-01-15T10:18:48;1.50;99.90
2523;DHT22;1272;53.332;9.860;2024-01-15T10:24:32;1.40;99.90
2523;DHT22;1272;53.332;9.860;2024-01-15T10:27:07;1.30;99.90
2523;DHT22;1272;53.332;9.860;2024-01-15T10:29:34;1.30;99.90
2523;DHT22;1272;53.332;9.860;2024-01-15T10:32:00;1.20;99.90
2523;DHT22;1272;53.332;9.860;2024-01-15T10:34:26;1.30;99.90
2523;DHT22;1272;53.332;9.860;2024-01-15T10:36:52;1.40;99.90
2523;DHT22;1272;53.332;9.860;2024-01-15T10:39:24;1.40;99.90
2523;DHT22;1272;53.332;9.860;2024-01-15T10:41:50;1.30;99.90
2523;DHT22;1272;53.332;9.860;2024-01-15T10:44:17;1.40;99.90
2523;DHT22;1272;53.332;9.860;2024-01-15T10:46:43;1.40;99.90
2523;DHT22;1272;53.332;9.860;2024-01-15T10:49:10;1.50;99.90
2523;DHT22;1272;53.332;9.860;2024-01-15T10:51:36;1.50;99.90
2523;DHT22;1272;53.332;9.860;2024-01-15T10:54:02;1.50;99.90
2523;DHT22;1272;53.332;9.860;2024-01-15T10:56:31;1.60;99.90
2523;DHT22;1272;53.332;9.860;2024-01-15T10:58:59;1.50;99.90
2523;DHT22;1272;53.332;9.860;2024-01-15T11:01:25;1.60;99.90
2523;DHT22;1272;53.332;9.860;2024-01-15T11:03:51;1.60;99.90
2523;DHT22;1272;53.332;9.860;2024-01-15T11:06:20;1.60;99.90
2523;DHT22;1272;53.332;9.860;2024-01-15T11:08:50;1.60;99.90
2523;DHT22;1272;53.332;9.860;2024-01-15T11:11:17;1.60;99.90
2523;DHT22;1272;53.332;9.860;2024-01-15T11:13:43;1.50;99.90
2523;DHT22;1272;53.332;9.860;2024-01-15T11:16:14;1.50;99.90
2523;DHT22;1272;53.332;9.860;2024-01-15T11:21:22;1.60;99.90
2523;DHT22;1272;53.332;9.860;2024-01-15T11:23:56;1.70;99.90
2523;DHT22;1272;53.332;9.860;2024-01-15T11:26:38;1.70;99.90
2523;DHT22;1272;53.332;9.860;2024-01-15T11:32:03;1.70;99.90
2523;DHT22;1272;53.332;9.860;2024-01-15T11:35:01;1.70;99.90
2523;DHT22;1272;53.332;9.860;2024-01-15T11:37:29;1.70;99.90
2523;DHT22;1272;53.332;9.860;2024-01-15T11:40:21;1.60;99.90
2523;DHT22;1272;53.332;9.860;2024-01-15T11:42:48;1.60;99.90
2523;DHT22;1272;53.332;9.860;2024-01-15T11:45:21;1.60;99.90
2523;DHT22;1272;53.332;9.860;2024-01-15T11:50:32;1.50;99.90
2523;DHT22;1272;53.332;9.860;2024-01-15T11:53:06;1.50;99.90
2523;DHT22;1272;53.332;9.860;2024-01-15T11:55:38;1.60;99.90
2523;DHT22;1272;53.332;9.860;2024-01-15T11:58:10;1.50;99.90
2523;DHT22;1272;53.332;9.860;2024-01-15T12:00:43;1.50;99.90
2523;DHT22;1272;53.332;9.860;2024-01-15T12:03:09;1.50;99.90
2523;DHT22;1272;53.332;9.860;2024-01-15T12:05:40;1.50;99.90
2523;DHT22;1272;53.332;9.860;2024-01-15T12:08:07;1.50;99.90
2523;DHT22;1272;53.332;9.860;2024-01-15T12:10:39;1.50;99.90
2523;DHT22;1272;53.332;9.860;2024-01-15T12:13:14;1.60;99.90
2523;DHT22;1272;53.332;9.860;2024-01-15T12:15:41;1.60;99.90
2523;DHT22;1272;53.332;9.860;2024-01-15T12:18:08;1.60;99.90
2523;DHT22;1272;53.332;9.860;2024-01-15T12:20:34;1.70;99.90
2523;DHT22;1272;53.332;9.860;2024-01-15T12:23:01;1.70;99.90
2523;DHT22;1272;53.332;9.860;2024-01-15T12:25:29;1.70;99.90
2523;DHT22;1272;53.332;9.860;2024-01-15T12:27:56;1.80;99.90
2523;DHT22;1272;53.332;9.860;2024-01-15T12:30:22;1.80;99.90
2523;DHT22;1272;53.332;9.860;2024-01-15T12:32:48;1.80;99.90
2523;DHT22;1272;53.332;9.860;2024-01-15T12:35:14;1.80;99.90
2523;DHT22;1272;53.332;9.860;2024-01-15T12:37:41;1.80;99.90
2523;DHT22;1272;53.332;9.860;2024-01-15T12:40:09;1.80;99.90
2523;DHT22;1272;53.332;9.860;2024-01-15T12:42:36;1.80;99.90
2523;DHT22;1272;53.332;9.860;2024-01-15T12:45:03;1.80;99.90
2523;DHT22;1272;53.332;9.860;2024-01-15T12:47:30;1.80;99.90
2523;DHT22;1272;53.332;9.860;2024-01-15T12:49:57;1.90;99.90
2523;DHT22;1272;53.332;9.860;2024-01-15T12:52:23;1.90;99.90
2523;DHT22;1272;53.332;9.860;2024-01-15T12:54:49;1.80;99.90
2523;DHT22;1272;53.332;9.860;2024-01-15T12:57:16;1.90;99.90
2523;DHT22;1272;53.332;9.860;2024-01-15T12:59:43;1.90;99.90
2523;DHT22;1272;53.332;9.860;2024-01-15T13:02:10;1.80;99.90
2523;DHT22;1272;53.332;9.860;2024-01-15T13:04:36;1.80;99.90
2523;DHT22;1272;53.332;9.860;2024-01-15T13:07:01;1.80;99.90
2523;DHT22;1272;53.332;9.860;2024-01-15T13:09:28;1.90;99.90
2523;DHT22;1272;53.332;9.860;2024-01-15T13:11:55;1.80;99.90
2523;DHT22;1272;53.332;9.860;2024-01-15T13:14:21;1.80;99.90
2523;DHT22;1272;53.332;9.860;2024-01-15T13:16:46;1.80;99.90
2523;DHT22;1272;53.332;9.860;2024-01-15T13:19:12;1.80;99.90
2523;DHT22;1272;53.332;9.860;2024-01-15T13:21:42;1.70;99.90
2523;DHT22;1272;53.332;9.860;2024-01-15T13:24:07;1.70;99.90
2523;DHT22;1272;53.332;9.860;2024-01-15T13:26:34;1.70;99.90
2523;DHT22;1272;53.332;9.860;2024-01-15T13:29:02;1.70;99.90
2523;DHT22;1272;53.332;9.860;2024-01-15T13:31:29;1.60;99.90
2523;DHT22;1272;53.332;9.860;2024-01-15T13:33:55;1.50;99.90
2523;DHT22;1272;53.332;9.860;2024-01-15T13:36:25;1.40;99.90
2523;DHT22;1272;53.332;9.860;2024-01-15T13:38:51;1.40;99.90
2523;DHT22;1272;53.332;9.860;2024-01-15T13:41:18;1.40;99.90
2523;DHT22;1272;53.332;9.860;2024-01-15T13:43:54;1.40;99.90
2523;DHT22;1272;53.332;9.860;2024-01-15T13:46:24;1.50;99.90
2523;DHT22;1272;53.332;9.860;2024-01-15T13:48:52;1.50;99.90
2523;DHT22;1272;53.332;9.860;2024-01-15T13:51:18;1.60;99.90
2523;DHT22;1272;53.332;9.860;2024-01-15T13:53:43;1.60;99.90
2523;DHT22;1272;53.332;9.860;2024-01-15T13:56:09;1.50;99.90
2523;DHT22;1272;53.332;9.860;2024-01-15T13:58:36;1.50;99.90
2523;DHT22;1272;53.332;9.860;2024-01-15T14:01:02;1.50;99.90
2523;DHT22;1272;53.332;9.860;2024-01-15T14:03:31;1.50;99.90
2523;DHT22;1272;53.332;9.860;2024-01-15T14:05:57;1.50;99.90
2523;DHT22;1272;53.332;9.860;2024-01-15T14:08:23;1.50;99.90
2523;DHT22;1272;53.332;9.860;2024-01-15T14:10:49;1.60;99.90
2523;DHT22;1272;53.332;9.860;2024-01-15T14:13:15;1.60;99.90
2523;DHT22;1272;53.332;9.860;2024-01-15T14:15:40;1.60;99.90
2523;DHT22;1272;53.332;9.860;2024-01-15T14:18:06;1.50;99.90
2523;DHT22;1272;53.332;9.860;2024-01-15T14:20:32;1.50;99.90
2523;DHT22;1272;53.332;9.860;2024-01-15T14:22:58;1.50;99.90
2523;DHT22;1272;53.332;9.860;2024-01-15T14:25:24;1.40;99.90
2523;DHT22;1272;53.332;9.860;2024-01-15T14:27:50;1.50;99.90
2523;DHT22;1272;53.332;9.860;2024-01-15T14:30:16;1.40;99.90
2523;DHT22;1272;53.332;9.860;2024-01-15T14:32:42;1.40;99.90
2523;DHT22;1272;53.332;9.860;2024-01-15T14:35:09;1.40;99.90
2523;DHT22;1272;53.332;9.860;2024-01-15T14:37:40;1.40;99.90
2523;DHT22;1272;53.332;9.860;2024-01-15T14:40:06;1.50;99.90
2523;DHT22;1272;53.332;9.860;2024-01-15T14:42:41;1.50;99.90
2523;DHT22;1272;53.332;9.860;2024-01-15T14:45:07;1.60;99.90
2523;DHT22;1272;53.332;9.860;2024-01-15T14:47:39;1.60;99.90
2523;DHT22;1272;53.332;9.860;2024-01-15T14:50:09;1.60;99.90
2523;DHT22;1272;53.332;9.860;2024-01-15T14:52:38;1.60;99.90
2523;DHT22;1272;53.332;9.860;2024-01-15T14:55:05;1.70;99.90
2523;DHT22;1272;53.332;9.860;2024-01-15T14:57:30;1.60;99.90
2523;DHT22;1272;53.332;9.860;2024-01-15T14:59:56;1.60;99.90
2523;DHT22;1272;53.332;9.860;2024-01-15T15:02:23;1.60;99.90
2523;DHT22;1272;53.332;9.860;2024-01-15T15:04:49;1.60;99.90
2523;DHT22;1272;53.332;9.860;2024-01-15T15:07:15;1.60;99.90
2523;DHT22;1272;53.332;9.860;2024-01-15T15:09:40;1.60;99.90
2523;DHT22;1272;53.332;9.860;2024-01-15T15:12:06;1.60;99.90
2523;DHT22;1272;53.332;9.860;2024-01-15T15:14:33;1.50;99.90
2523;DHT22;1272;53.332;9.860;2024-01-15T15:17:06;1.50;99.90
2523;DHT22;1272;53.332;9.860;2024-01-15T15:19:32;1.40;99.90
2523;DHT22;1272;53.332;9.860;2024-01-15T15:21:58;1.50;99.90
2523;DHT22;1272;53.332;9.860;2024-01-15T15:24:24;1.50;99.90
2523;DHT22;1272;53.332;9.860;2024-01-15T15:26:52;1.50;99.90
2523;DHT22;1272;53.332;9.860;2024-01-15T15:29:18;1.50;99.90
2523;DHT22;1272;53.332;9.860;2024-01-15T15:31:44;1.50;99.90
2523;DHT22;1272;53.332;9.860;2024-01-15T15:34:10;1.50;99.90
2523;DHT22;1272;53.332;9.860;2024-01-15T15:36:35;1.40;99.90
2523;DHT22;1272;53.332;9.860;2024-01-15T15:39:01;1.40;99.90
2523;DHT22;1272;53.332;9.860;2024-01-15T15:41:27;1.50;99.90
2523;DHT22;1272;53.332;9.860;2024-01-15T15:43:56;1.50;99.90
2523;DHT22;1272;53.332;9.860;2024-01-15T15:46:21;1.40;99.90
2523;DHT22;1272;53.332;9.860;2024-01-15T15:48:47;1.50;99.90
2523;DHT22;1272;53.332;9.860;2024-01-15T15:51:13;1.40;99.90
2523;DHT22;1272;53.332;9.860;2024-01-15T15:53:39;1.40;99.90
2523;DHT22;1272;53.332;9.860;2024-01-15T15:56:04;1.40;99.90
2523;DHT22;1272;53.332;9.860;2024-01-15T15:58:31;1.40;99.90
2523;DHT22;1272;53.332;9.860;2024-01-15T16:00:58;1.40;99.90
2523;DHT22;1272;53.332;9.860;2024-01-15T16:03:23;1.40;99.90
2523;DHT22;1272;53.332;9.860;2024-01-15T16:05:49;1.30;99.90
2523;DHT22;1272;53.332;9.860;2024-01-15T16:08:15;1.40;99.90
2523;DHT22;1272;53.332;9.860;2024-01-15T16:10:43;1.40;99.90
2523;DHT22;1272;53.332;9.860;2024-01-15T16:13:09;1.30;99.90
2523;DHT22;1272;53.332;9.860;2024-01-15T16:15:35;1.30;99.90
2523;DHT22;1272;53.332;9.860;2024-01-15T16:18:01;1.30;99.90
2523;DHT22;1272;53.332;9.860;2024-01-15T16:20:26;1.40;99.90
2523;DHT22;1272;53.332;9.860;2024-01-15T16:22:52;1.40;99.90
2523;DHT22;1272;53.332;9.860;2024-01-15T16:25:18;1.30;99.90